createdAt,value
2022-08-20T00:01:12.532Z,99.90
2022-08-20T00:03:44.596Z,99.80
2022-08-20T00:06:21.183Z,99.10
2022-08-20T00:08:48.457Z,98.60
2022-08-20T00:11:19.664Z,98.10
2022-08-20T00:13:50.934Z,97.90
2022-08-20T00:16:22.576Z,96.60
2022-08-20T00:18:50.089Z,95.70
2022-08-20T00:21:19.755Z,94.70
2022-08-20T00:23:50.813Z,93.90
2022-08-20T00:26:20.623Z,93.50
2022-08-20T00:28:47.941Z,93.00
2022-08-20T00:31:19.964Z,92.80
2022-08-20T00:33:47.810Z,92.90
2022-08-20T00:36:17.648Z,93.10
2022-08-20T00:38:45.484Z,93.60
2022-08-20T00:41:15.848Z,93.30
2022-08-20T00:43:44.467Z,94.10
2022-08-20T00:46:31.516Z,93.50
2022-08-20T00:49:03.981Z,94.40
2022-08-20T00:51:43.936Z,94.90
2022-08-20T00:54:22.441Z,95.00
2022-08-20T00:57:18.407Z,95.80
2022-08-20T00:59:45.410Z,96.80
2022-08-20T01:02:16.011Z,98.20
2022-08-20T01:04:54.681Z,99.90
2022-08-20T01:07:35.755Z,99.90
2022-08-20T01:10:08.185Z,99.90
2022-08-20T01:12:35.305Z,99.90
2022-08-20T01:15:04.640Z,99.90
2022-08-20T01:17:36.453Z,99.90
2022-08-20T01:20:14.304Z,99.90
2022-08-20T01:23:30.064Z,99.90
2022-08-20T01:26:08.921Z,99.90
2022-08-20T01:28:56.494Z,99.90
2022-08-20T01:31:30.306Z,99.90
2022-08-20T01:33:59.875Z,99.90
2022-08-20T01:36:35.224Z,99.90
2022-08-20T01:39:04.187Z,99.90
2022-08-20T01:42:15.471Z,99.90
2022-08-20T01:44:44.761Z,99.90
2022-08-20T01:47:27.644Z,99.90
2022-08-20T01:50:15.620Z,99.90
2022-08-20T01:53:08.870Z,99.90
2022-08-20T01:55:36.823Z,99.90
2022-08-20T01:58:04.271Z,99.90
2022-08-20T02:00:32.622Z,99.90
2022-08-20T02:02:59.839Z,99.90
2022-08-20T02:05:30.712Z,99.90
2022-08-20T02:07:58.357Z,99.90
2022-08-20T02:10:25.632Z,99.90
2022-08-20T02:12:53.449Z,99.90
2022-08-20T02:15:30.731Z,99.90
2022-08-20T02:18:09.015Z,99.90
2022-08-20T02:20:37.405Z,99.90
2022-08-20T02:23:05.248Z,99.90
2022-08-20T02:25:35.495Z,99.90
2022-08-20T02:28:10.749Z,99.90
2022-08-20T02:30:42.432Z,99.90
2022-08-20T02:33:13.668Z,99.90
2022-08-20T02:35:44.768Z,99.90
2022-08-20T02:38:11.827Z,99.90
2022-08-20T02:40:39.850Z,99.90
2022-08-20T02:43:06.828Z,99.90
2022-08-20T02:45:43.472Z,99.90
2022-08-20T02:48:21.355Z,99.90
2022-08-20T02:50:57.729Z,99.90
2022-08-20T02:53:26.287Z,99.90
2022-08-20T02:55:53.426Z,99.90
2022-08-20T02:58:20.741Z,99.90
2022-08-20T03:00:48.505Z,99.90
2022-08-20T03:03:17.077Z,99.90
2022-08-20T03:05:47.628Z,99.90
2022-08-20T03:08:15.457Z,99.90
2022-08-20T03:10:44.859Z,99.90
2022-08-20T03:13:12.723Z,99.90
2022-08-20T03:15:46.127Z,99.90
2022-08-20T03:18:13.667Z,99.90
2022-08-20T03:20:41.452Z,99.90
2022-08-20T03:23:08.344Z,99.90
2022-08-20T03:25:35.909Z,99.90
2022-08-20T03:28:03.277Z,99.90
2022-08-20T03:30:31.491Z,99.90
2022-08-20T03:32:58.649Z,99.90
2022-08-20T03:35:28.067Z,99.90
2022-08-20T03:37:55.392Z,99.90
2022-08-20T03:40:34.224Z,99.90
2022-08-20T03:43:01.571Z,99.90
2022-08-20T03:45:30.088Z,99.90
2022-08-20T03:47:58.077Z,99.90
2022-08-20T03:50:28.568Z,99.90
2022-08-20T03:52:57.729Z,99.90
2022-08-20T03:55:25.084Z,99.90
2022-08-20T03:57:56.893Z,99.90
2022-08-20T04:00:27.631Z,99.90
2022-08-20T04:02:56.560Z,99.90
2022-08-20T04:05:25.219Z,99.90
2022-08-20T04:07:56.616Z,99.90
2022-08-20T04:10:30.838Z,99.90
2022-08-20T04:12:57.796Z,99.90
2022-08-20T04:15:24.716Z,99.90
2022-08-20T04:17:53.592Z,99.90
2022-08-20T04:20:24.110Z,99.90
2022-08-20T04:22:59.107Z,99.90
2022-08-20T04:25:35.842Z,99.90
2022-08-20T04:28:06.500Z,99.90
2022-08-20T04:30:33.617Z,99.90
2022-08-20T04:33:01.251Z,99.90
2022-08-20T04:35:29.421Z,99.90
2022-08-20T04:38:07.701Z,99.90
2022-08-20T04:40:54.401Z,99.90
2022-08-20T04:43:25.663Z,99.90
2022-08-20T04:45:53.878Z,99.90
2022-08-20T04:48:24.022Z,99.90
2022-08-20T04:50:53.845Z,99.90
2022-08-20T04:53:26.020Z,99.90
2022-08-20T04:55:54.671Z,99.90
2022-08-20T04:58:27.426Z,99.90
2022-08-20T05:01:01.471Z,99.90
2022-08-20T05:03:28.956Z,99.90
2022-08-20T05:05:56.969Z,99.90
2022-08-20T05:08:26.051Z,99.90
2022-08-20T05:10:58.141Z,99.90
2022-08-20T05:13:41.389Z,99.90
2022-08-20T05:16:08.549Z,99.90
2022-08-20T05:18:35.935Z,99.90
2022-08-20T05:21:06.891Z,99.90
2022-08-20T05:23:41.507Z,99.90
2022-08-20T05:26:09.561Z,99.90
2022-08-20T05:28:52.750Z,99.90
2022-08-20T05:31:31.796Z,99.90
2022-08-20T05:34:10.276Z,99.90
2022-08-20T05:36:42.949Z,99.90
2022-08-20T05:39:10.901Z,99.90
2022-08-20T05:41:39.048Z,99.90
2022-08-20T05:44:10.789Z,99.90
2022-08-20T05:46:41.864Z,99.90
2022-08-20T05:49:10.332Z,99.90
2022-08-20T05:51:38.148Z,99.90
2022-08-20T05:54:06.816Z,99.90
2022-08-20T05:56:33.985Z,99.90
2022-08-20T05:59:03.944Z,99.90
2022-08-20T06:01:33.549Z,99.90
2022-08-20T06:04:19.340Z,99.90
2022-08-20T06:06:47.356Z,99.90
2022-08-20T06:09:30.720Z,99.90
2022-08-20T06:12:01.339Z,99.90
2022-08-20T06:14:28.630Z,99.90
2022-08-20T06:16:57.671Z,99.90
2022-08-20T06:19:27.216Z,99.90
2022-08-20T06:21:59.655Z,99.90
2022-08-20T06:24:26.982Z,99.90
2022-08-20T06:27:01.198Z,99.90
2022-08-20T06:29:28.868Z,99.90
2022-08-20T06:31:56.286Z,99.90
2022-08-20T06:34:26.312Z,99.90
2022-08-20T06:36:53.209Z,99.90
2022-08-20T06:39:20.321Z,99.90
2022-08-20T06:41:47.278Z,99.90
2022-08-20T06:44:15.221Z,99.90
2022-08-20T06:46:43.466Z,99.90
2022-08-20T06:49:11.451Z,99.90
2022-08-20T06:51:38.890Z,99.90
2022-08-20T06:54:08.674Z,99.90
2022-08-20T06:56:35.550Z,99.90
2022-08-20T06:59:02.514Z,99.90
2022-08-20T07:01:29.650Z,99.90
2022-08-20T07:03:59.633Z,99.90
2022-08-20T07:06:27.026Z,99.90
2022-08-20T07:08:55.338Z,99.90
2022-08-20T07:11:27.339Z,99.90
2022-08-20T07:13:56.753Z,99.90
2022-08-20T07:16:23.929Z,99.90
2022-08-20T07:18:50.968Z,99.90
2022-08-20T07:21:17.901Z,99.90
2022-08-20T07:23:45.213Z,99.90
2022-08-20T07:26:13.265Z,94.90
2022-08-20T07:28:40.416Z,94.70
2022-08-20T07:31:26.982Z,91.60
2022-08-20T07:33:54.435Z,92.20
2022-08-20T07:36:21.771Z,89.30
2022-08-20T07:38:50.910Z,85.10
2022-08-20T07:41:20.109Z,86.40
2022-08-20T07:43:47.687Z,91.60
2022-08-20T07:46:16.753Z,94.60
2022-08-20T07:48:46.736Z,97.00
2022-08-20T07:51:17.962Z,97.70
2022-08-20T07:53:47.099Z,98.30
2022-08-20T07:56:17.209Z,98.20
2022-08-20T07:58:49.837Z,98.60
2022-08-20T08:01:18.655Z,96.40
2022-08-20T08:03:49.592Z,95.70
2022-08-20T08:06:29.361Z,94.60
2022-08-20T08:09:07.113Z,88.00
2022-08-20T08:11:37.632Z,90.20
2022-08-20T08:14:06.937Z,91.30
2022-08-20T08:16:35.164Z,92.40
2022-08-20T08:19:06.225Z,92.90
2022-08-20T08:21:33.220Z,89.30
2022-08-20T08:24:00.323Z,90.40
2022-08-20T08:26:28.998Z,91.80
2022-08-20T08:28:57.522Z,91.30
2022-08-20T08:31:25.896Z,93.10
2022-08-20T08:33:53.117Z,92.80
2022-08-20T08:36:20.259Z,92.60
2022-08-20T08:38:47.241Z,92.00
2022-08-20T08:41:39.639Z,93.80
2022-08-20T08:44:14.333Z,93.20
2022-08-20T08:46:48.411Z,92.20
2022-08-20T08:49:23.233Z,91.00
2022-08-20T08:52:17.168Z,89.10
2022-08-20T08:54:52.917Z,89.10
2022-08-20T08:57:19.955Z,80.00
2022-08-20T09:00:01.408Z,82.00
2022-08-20T09:02:37.838Z,75.20
2022-08-20T09:05:15.144Z,68.40
2022-08-20T09:07:45.599Z,63.40
2022-08-20T09:10:12.588Z,60.80
2022-08-20T09:12:40.330Z,48.20
2022-08-20T09:15:09.782Z,41.20
2022-08-20T09:17:37.119Z,44.40
2022-08-20T09:20:05.372Z,44.70
2022-08-20T09:22:33.514Z,39.40
2022-08-20T09:25:01.471Z,42.70
2022-08-20T09:27:28.691Z,35.80
2022-08-20T09:29:55.638Z,34.90
2022-08-20T09:32:24.542Z,22.90
2022-08-20T09:34:59.196Z,11.60
2022-08-20T09:37:32.434Z,4.10
2022-08-20T09:40:02.346Z,1.50
2022-08-20T09:42:36.194Z,1.00
2022-08-20T09:45:06.710Z,1.00
2022-08-20T09:47:38.390Z,1.00
2022-08-20T09:50:09.516Z,1.00
2022-08-20T09:52:41.213Z,1.00
2022-08-20T09:55:44.696Z,1.00
2022-08-20T09:58:39.918Z,2.30
2022-08-20T10:01:14.122Z,4.60
2022-08-20T10:03:45.332Z,6.20
2022-08-20T10:06:14.797Z,10.00
2022-08-20T10:08:41.839Z,11.50
2022-08-20T10:11:09.278Z,13.80
2022-08-20T10:13:36.167Z,14.00
2022-08-20T10:16:03.427Z,9.20
2022-08-20T10:18:30.455Z,1.00
2022-08-20T10:20:58.644Z,1.00
2022-08-20T10:23:25.532Z,1.00
2022-08-20T10:25:52.539Z,1.00
2022-08-20T10:28:19.625Z,1.00
2022-08-20T10:30:47.112Z,1.00
2022-08-20T10:33:14.134Z,1.00
2022-08-20T10:35:41.119Z,1.00
2022-08-20T10:38:08.149Z,1.00
2022-08-20T10:40:35.384Z,1.00
2022-08-20T10:43:03.086Z,1.00
2022-08-20T10:45:30.085Z,1.00
2022-08-20T10:48:00.318Z,1.00
2022-08-20T10:50:30.897Z,1.00
2022-08-20T10:52:58.115Z,1.00
2022-08-20T10:55:25.235Z,1.00
2022-08-20T10:57:52.306Z,1.00
2022-08-20T11:00:19.550Z,1.00
2022-08-20T11:02:46.956Z,1.00
2022-08-20T11:05:13.911Z,1.00
2022-08-20T11:07:55.255Z,1.00
2022-08-20T11:10:25.924Z,1.00
2022-08-20T11:12:52.884Z,1.00
2022-08-20T11:15:20.024Z,1.00
2022-08-20T11:17:48.263Z,1.00
2022-08-20T11:20:17.491Z,1.00
2022-08-20T11:22:44.560Z,1.00
2022-08-20T11:25:11.766Z,1.00
2022-08-20T11:27:42.064Z,1.00
2022-08-20T11:30:12.286Z,1.00
2022-08-20T11:32:39.713Z,1.00
2022-08-20T11:35:38.398Z,1.00
2022-08-20T11:37:55.853Z,1.00
2022-08-20T11:40:23.886Z,1.70
2022-08-20T11:43:13.253Z,4.80
2022-08-20T11:45:38.064Z,8.90
2022-08-20T11:48:05.457Z,18.90
2022-08-20T11:50:32.507Z,26.20
2022-08-20T11:53:01.035Z,38.10
2022-08-20T11:55:30.614Z,43.60
2022-08-20T11:58:00.046Z,53.00
2022-08-20T12:00:31.937Z,54.20
2022-08-20T12:03:01.810Z,52.60
2022-08-20T12:05:30.272Z,53.10
2022-08-20T12:08:00.128Z,51.10
2022-08-20T12:10:29.415Z,52.70
2022-08-20T12:12:57.037Z,49.80
2022-08-20T12:15:26.711Z,45.10
2022-08-20T12:17:54.941Z,33.10
2022-08-20T12:20:23.829Z,26.00
2022-08-20T12:22:51.188Z,13.10
2022-08-20T12:25:18.418Z,7.80
2022-08-20T12:27:46.375Z,1.00
2022-08-20T12:30:17.291Z,1.00
2022-08-20T12:32:44.899Z,1.00
2022-08-20T12:35:13.632Z,1.00
2022-08-20T12:37:41.386Z,1.00
2022-08-20T12:40:11.937Z,1.00
2022-08-20T12:42:39.545Z,1.00
2022-08-20T12:45:07.686Z,1.00
2022-08-20T12:47:38.110Z,3.90
2022-08-20T12:50:25.184Z,3.30
2022-08-20T12:52:53.556Z,1.60
2022-08-20T12:55:21.001Z,1.00
2022-08-20T12:57:54.086Z,1.00
2022-08-20T13:00:30.166Z,1.00
2022-08-20T13:02:59.382Z,1.00
2022-08-20T13:05:27.496Z,1.00
2022-08-20T13:07:54.789Z,1.00
2022-08-20T13:10:44.477Z,1.00
2022-08-20T13:13:20.230Z,1.00
2022-08-20T13:15:49.308Z,1.00
2022-08-20T13:18:16.350Z,1.00
2022-08-20T13:20:43.472Z,1.00
2022-08-20T13:23:10.455Z,1.00
2022-08-20T13:25:37.441Z,1.00
2022-08-20T13:28:05.900Z,1.00
2022-08-20T13:30:34.784Z,1.00
2022-08-20T13:33:02.314Z,1.30
2022-08-20T13:35:29.710Z,1.30
2022-08-20T13:37:56.838Z,2.50
2022-08-20T13:40:24.090Z,3.60
2022-08-20T13:42:51.033Z,3.50
2022-08-20T13:45:18.146Z,4.80
2022-08-20T13:47:45.183Z,5.90
2022-08-20T13:50:18.553Z,7.00
2022-08-20T13:52:56.024Z,6.90
2022-08-20T13:55:25.508Z,8.50
2022-08-20T13:57:53.243Z,8.80
2022-08-20T14:00:31.267Z,9.10
2022-08-20T14:03:04.258Z,10.20
2022-08-20T14:05:31.925Z,10.20
2022-08-20T14:08:07.507Z,7.90
2022-08-20T14:10:34.534Z,2.60
2022-08-20T14:13:03.571Z,3.00
2022-08-20T14:15:30.730Z,3.00
2022-08-20T14:17:58.698Z,2.70
2022-08-20T14:20:32.210Z,1.10
2022-08-20T14:23:00.613Z,1.00
2022-08-20T14:25:28.800Z,1.00
2022-08-20T14:27:55.943Z,1.00
2022-08-20T14:30:26.384Z,1.00
2022-08-20T14:32:53.669Z,1.00
2022-08-20T14:35:21.383Z,1.00
2022-08-20T14:37:52.221Z,1.00
2022-08-20T14:40:20.969Z,1.00
2022-08-20T14:42:51.755Z,1.00
2022-08-20T14:45:23.052Z,1.00
2022-08-20T14:47:54.212Z,1.00
2022-08-20T14:50:27.797Z,1.00
2022-08-20T14:52:56.965Z,1.00
2022-08-20T14:55:27.732Z,1.00
2022-08-20T14:57:55.317Z,1.00
2022-08-20T15:00:28.839Z,1.00
2022-08-20T15:02:57.172Z,1.00
2022-08-20T15:05:25.302Z,1.00
2022-08-20T15:07:54.213Z,1.00
2022-08-20T15:10:29.469Z,1.00
2022-08-20T15:12:56.855Z,1.00
2022-08-20T15:15:25.041Z,1.00
2022-08-20T15:17:56.721Z,1.00
2022-08-20T15:20:26.177Z,1.00
2022-08-20T15:22:55.156Z,1.00
2022-08-20T15:25:27.455Z,1.00
2022-08-20T15:28:04.621Z,1.00
2022-08-20T15:30:32.540Z,1.00
2022-08-20T15:32:59.812Z,1.00
2022-08-20T15:35:28.236Z,1.00
2022-08-20T15:37:57.594Z,1.00
2022-08-20T15:40:28.451Z,1.00
2022-08-20T15:42:57.777Z,1.00
2022-08-20T15:45:25.520Z,1.00
2022-08-20T15:48:15.294Z,1.00
2022-08-20T15:50:47.917Z,1.00
2022-08-20T15:53:33.169Z,1.00
2022-08-20T15:56:42.980Z,1.00
2022-08-20T15:59:22.147Z,1.00
2022-08-20T16:02:25.654Z,1.00
2022-08-20T16:05:17.149Z,1.00
2022-08-20T16:08:25.667Z,1.00
2022-08-20T16:11:23.522Z,1.00
2022-08-20T16:14:31.793Z,1.00
2022-08-20T16:17:06.467Z,1.00
2022-08-20T16:19:59.081Z,1.00
2022-08-20T16:22:30.032Z,1.00
2022-08-20T16:24:57.405Z,1.00
2022-08-20T16:27:28.800Z,1.00
2022-08-20T16:30:03.289Z,1.00
2022-08-20T16:32:42.804Z,1.00
2022-08-20T16:35:32.699Z,1.00
2022-08-20T16:38:39.336Z,1.00
2022-08-20T16:41:21.822Z,1.00
2022-08-20T16:44:21.086Z,1.00
2022-08-20T16:46:54.185Z,1.00
2022-08-20T16:49:22.477Z,1.00
2022-08-20T16:51:53.284Z,1.00
2022-08-20T16:54:29.394Z,1.00
2022-08-20T16:57:00.943Z,1.00
2022-08-20T16:59:28.844Z,1.00
2022-08-20T17:02:07.076Z,1.00
2022-08-20T17:04:34.730Z,1.00
2022-08-20T17:07:03.265Z,1.00
2022-08-20T17:09:51.549Z,1.00
2022-08-20T17:12:24.786Z,1.00
2022-08-20T17:14:54.667Z,1.00
2022-08-20T17:17:39.791Z,1.00
2022-08-20T17:20:20.210Z,1.00
2022-08-20T17:23:12.332Z,1.00
2022-08-20T17:25:39.389Z,1.00
2022-08-20T17:28:21.494Z,1.00
2022-08-20T17:30:49.134Z,1.00
2022-08-20T17:33:28.610Z,1.00
2022-08-20T17:35:59.293Z,1.00
2022-08-20T17:38:41.415Z,1.00
2022-08-20T17:41:17.230Z,1.00
2022-08-20T17:43:44.917Z,1.00
2022-08-20T17:46:16.595Z,1.00
2022-08-20T17:48:46.773Z,1.00
2022-08-20T17:51:28.123Z,1.00
2022-08-20T17:54:29.146Z,1.00
2022-08-20T17:57:01.854Z,1.00
2022-08-20T18:00:00.385Z,1.00
2022-08-20T18:02:22.675Z,1.00
2022-08-20T18:04:50.753Z,1.00
2022-08-20T18:07:26.343Z,1.00
2022-08-20T18:10:17.464Z,1.00
2022-08-20T18:13:23.963Z,1.00
2022-08-20T18:15:56.659Z,1.00
2022-08-20T18:18:57.322Z,1.00
2022-08-20T18:21:57.861Z,1.00
2022-08-20T18:24:40.349Z,1.00
2022-08-20T18:27:14.593Z,1.00
2022-08-20T18:29:44.915Z,1.00
2022-08-20T18:32:46.103Z,1.00
2022-08-20T18:35:20.681Z,1.30
2022-08-20T18:37:48.238Z,1.10
2022-08-20T18:40:18.251Z,1.70
2022-08-20T18:42:45.802Z,3.40
2022-08-20T18:45:13.453Z,3.90
2022-08-20T18:47:46.997Z,3.90
2022-08-20T18:50:40.882Z,3.90
2022-08-20T18:53:34.254Z,4.40
2022-08-20T18:56:06.587Z,5.20
2022-08-20T18:58:38.311Z,5.10
2022-08-20T19:01:11.846Z,5.90
2022-08-20T19:03:49.795Z,8.00
2022-08-20T19:06:50.517Z,8.00
2022-08-20T19:09:53.815Z,9.60
2022-08-20T19:13:15.903Z,10.90
2022-08-20T19:15:55.309Z,11.50
2022-08-20T19:18:32.991Z,12.00
2022-08-20T19:21:02.321Z,12.80
2022-08-20T19:23:33.227Z,13.40
2022-08-20T19:26:06.882Z,14.80
2022-08-20T19:28:55.530Z,16.80
2022-08-20T19:31:27.525Z,16.80
2022-08-20T19:34:21.750Z,16.80
2022-08-20T19:37:31.592Z,19.10
2022-08-20T19:40:05.855Z,19.40
2022-08-20T19:42:40.530Z,20.50
2022-08-20T19:45:22.764Z,21.80
2022-08-20T19:48:28.580Z,23.00
2022-08-20T19:51:32.585Z,27.60
2022-08-20T19:54:00.876Z,30.30
2022-08-20T19:56:31.315Z,31.40
2022-08-20T19:59:07.065Z,32.00
2022-08-20T20:01:35.139Z,34.10
2022-08-20T20:04:06.219Z,33.90
2022-08-20T20:06:41.624Z,33.80
2022-08-20T20:09:22.195Z,36.50
2022-08-20T20:11:53.934Z,40.80
2022-08-20T20:14:25.639Z,44.00
2022-08-20T20:16:53.101Z,46.20
2022-08-20T20:19:26.655Z,47.20
2022-08-20T20:22:20.109Z,49.90
2022-08-20T20:25:27.486Z,58.50
2022-08-20T20:27:58.431Z,62.80
2022-08-20T20:30:31.945Z,60.40
2022-08-20T20:33:02.962Z,61.80
2022-08-20T20:35:35.271Z,68.20
2022-08-20T20:38:09.613Z,64.80
2022-08-20T20:40:50.831Z,67.20
2022-08-20T20:43:41.354Z,70.30
2022-08-20T20:46:25.177Z,71.00
2022-08-20T20:49:29.529Z,73.40
2022-08-20T20:52:06.309Z,73.50
2022-08-20T20:54:44.407Z,76.00
2022-08-20T20:57:38.786Z,79.40
2022-08-20T21:00:14.694Z,82.90
2022-08-20T21:02:41.795Z,82.20
2022-08-20T21:05:10.622Z,82.30
2022-08-20T21:07:50.551Z,84.10
2022-08-20T21:10:19.984Z,82.50
2022-08-20T21:12:51.949Z,82.70
2022-08-20T21:15:21.681Z,82.80
2022-08-20T21:17:48.685Z,87.30
2022-08-20T21:20:16.333Z,89.60
2022-08-20T21:22:43.409Z,91.10
2022-08-20T21:25:10.619Z,92.20
2022-08-20T21:27:39.188Z,91.70
2022-08-20T21:30:06.674Z,92.70
2022-08-20T21:32:33.789Z,94.20
2022-08-20T21:35:00.726Z,93.30
2022-08-20T21:37:29.793Z,92.50
2022-08-20T21:39:56.847Z,89.60
2022-08-20T21:42:29.036Z,88.50
2022-08-20T21:44:58.016Z,89.80
2022-08-20T21:47:25.402Z,91.30
2022-08-20T21:49:53.118Z,92.30
2022-08-20T21:52:20.296Z,92.10
2022-08-20T21:54:47.219Z,92.20
2022-08-20T21:57:21.398Z,92.30
2022-08-20T21:59:49.003Z,90.70
2022-08-20T22:02:17.447Z,90.00
2022-08-20T22:04:44.364Z,90.60
2022-08-20T22:07:11.862Z,91.00
2022-08-20T22:09:39.560Z,90.90
2022-08-20T22:12:11.700Z,90.80
2022-08-20T22:14:39.819Z,91.00
2022-08-20T22:17:06.745Z,91.40
2022-08-20T22:19:33.797Z,92.40
2022-08-20T22:22:00.724Z,91.60
2022-08-20T22:24:29.346Z,88.50
2022-08-20T22:26:56.596Z,80.20
2022-08-20T22:29:23.649Z,73.90
2022-08-20T22:31:51.002Z,71.50
2022-08-20T22:34:20.775Z,68.80
2022-08-20T22:36:49.061Z,67.30
2022-08-20T22:39:16.060Z,67.90
2022-08-20T22:41:43.067Z,70.30
2022-08-20T22:44:10.159Z,69.30
2022-08-20T22:46:45.035Z,68.20
2022-08-20T22:49:18.393Z,67.70
2022-08-20T22:51:45.389Z,67.10
2022-08-20T22:54:16.425Z,68.10
2022-08-20T22:56:43.326Z,69.00
2022-08-20T22:59:10.791Z,69.60
2022-08-20T23:01:38.475Z,70.90
2022-08-20T23:04:35.409Z,71.80
2022-08-20T23:07:09.162Z,72.90
2022-08-20T23:09:36.350Z,75.60
2022-08-20T23:12:04.272Z,76.50
2022-08-20T23:14:31.780Z,77.00
2022-08-20T23:17:15.229Z,77.70
2022-08-20T23:19:42.776Z,80.20
2022-08-20T23:22:10.025Z,79.10
2022-08-20T23:24:37.521Z,79.20
2022-08-20T23:27:07.321Z,77.10
2022-08-20T23:29:34.404Z,76.40
2022-08-20T23:32:01.282Z,78.50
2022-08-20T23:34:29.058Z,78.40
2022-08-20T23:36:57.370Z,78.40
2022-08-20T23:39:25.994Z,78.90
2022-08-20T23:41:53.884Z,79.50
2022-08-20T23:44:25.819Z,80.80
2022-08-20T23:47:00.884Z,84.80
2022-08-20T23:49:29.738Z,84.10
2022-08-20T23:51:57.836Z,86.30
2022-08-20T23:54:24.771Z,85.40
2022-08-20T23:56:51.845Z,86.30
2022-08-20T23:59:24.484Z,89.00
